x

South Brooks (46132) Wave Buoy

12:00 - Tue 26th Jul 2016 All times are PDT. -7 hours from GMT.

  • Sig Wave height 6.2ft
  • Peak Period 5s
  • Wind
    25mph, 31mph gusts
  • Sea Temp 58°f
  • Luft Temp 60°f
  • Sea Pressure 1020.4mb
  • South Brooks
  • South Brooks

More Historic Weather Station data

Upgrade to MSW Pro to gain access to the past 30 days of data for over 8000 Wavebouys and Weather Stations around the globe.

Join Pro

Comparision Forecast

View Surf forecast
   
Di 07/26 12:00 6ft 5s 25 31 mph 1020.4mb 58f 60f
Mo 07/25 11:00 6ft 5s 25 29 mph 1020.3mb 58f 60f
10:00 7ft 9s 25 29 mph 1020.3mb 58f 60f
9:00 6.5ft 10s 25 29 mph 1020.1mb 59f 60f
8:00 7ft 10s 27 31 mph 1019.7mb 59f 61f
7:00 7ft 10s 25 29 mph 1019.6mb 59f 60f
6:00 7ft 11s 25 29 mph 1019.6mb 60f 61f
5:00 7ft 10s 27 31 mph 1019.9mb 60f 61f
4:00 6.5ft 11s 25 31 mph 1020mb 59f 61f
3:00 6ft 11s 25 31 mph 1020.1mb 59f 60f
2:00 6ft 11s 25 29 mph 1020.2mb 59f 60f
1:00 6.5ft 9s 25 31 mph 1020mb 59f 60f
12:00 7ft 11s 25 29 mph 1020mb 59f 60f
11:00 7.5ft 11s 25 29 mph 1019.8mb 59f 60f
10:00 7ft 11s 25 29 mph 1019.7mb 59f 59f
9:00 7.5ft 11s 25 29 mph 1019.6mb 59f 60f
8:00 7ft 11s 25 31 mph 1019.2mb 59f 60f
7:00 7ft 11s 27 31 mph 1018.8mb 60f 60f
6:00 7ft 11s 27 31 mph 1018.7mb 60f 60f
5:00 6.5ft 11s 25 29 mph 1018.8mb 60f 60f
4:00 6ft 11s 22 27 mph 1018.8mb 60f 61f
3:00 6ft 10s 22 27 mph 1018.9mb 60f 61f
2:00 5.5ft 10s 20 27 mph 1019.2mb 61f 61f
1:00 6ft 10s 22 27 mph 1019.3mb 61f 61f
12:00 5.5ft 10s 22 27 mph 1019.3mb 61f 60f
So 07/24 11:00 5ft 10s 20 25 mph 1019.7mb 61f 61f
10:00 5ft 9s 20 25 mph 1019.8mb 61f 60f
9:00 5ft 8s 20 22 mph 1019.6mb 61f 61f
8:00 4.5ft 8s 18 20 mph 1019.9mb 61f 61f
7:00 4.5ft 8s 16 20 mph 1020.1mb 61f 62f
6:00 4.5ft 8s 11 16 mph 1020.3mb 62f 62f
5:00 4.5ft 8s 11 16 mph 1020.7mb 62f 62f
4:00 4ft 8s 11 13 mph 1020.9mb 62f 63f
3:00 4.5ft 8s 9 11 mph 1021.3mb 62f 63f
2:00 4.5ft 8s 7 9 mph 1021.5mb 62f 63f
1:00 4.5ft 8s 4
mph
1021.8mb 62f 63f
12:00 4ft 7s 4
mph
1022mb 62f 63f
11:00 3.5ft 7s 2
mph
1022mb 61f 62f
10:00 4ft 8s 4 7 mph 1022mb 61f 61f
9:00 4ft 7s 2 4 mph 1022.2mb 61f 62f
8:00 4.5ft 7s 4
mph
1022.1mb 61f 61f
7:00 4ft 8s 4
mph
1021.9mb 61f 61f
6:00 3.5ft 7s 9 11 mph 1021.8mb 61f 62f
5:00 4ft 7s 7 9 mph 1021.6mb 61f 62f
4:00 4ft 7s 4 7 mph 1021.8mb 61f 62f
3:00 4ft 7s 4 7 mph 1022.2mb 61f 62f
2:00 3.5ft 7s 4 7 mph 1022.7mb 61f 62f
1:00 4ft 7s 7
mph
1023.2mb 61f 63f
12:00 3.5ft 14s 7 9 mph 1023.5mb 61f 63f
Sa 07/23 11:00 3.5ft 14s 9
mph
1024mb 61f 63f
10:00 3.5ft 14s 9
mph
1024.2mb 61f 63f
9:00 3.5ft 7s 7 9 mph 1024mb 61f 63f
8:00 3.5ft 6s 9 11 mph 1024.2mb 61f 63f
7:00 3.5ft 7s 9 11 mph 1024.2mb 61f 63f
6:00 3.5ft 7s 9 11 mph 1024.4mb 61f 63f
5:00 3.5ft 6s 7 9 mph 1024.8mb 61f 63f
4:00 3.5ft 7s 9 11 mph 1025.2mb 61f 62f
3:00 3.5ft 14s 9
mph
1025.2mb 61f 63f
2:00 3.5ft 14s 9 11 mph 1025.2mb 61f 62f
1:00 3.5ft 6s 9 11 mph 1025.1mb 61f 63f
12:00 3.5ft 8s 9 11 mph 1025.4mb 60f 62f
11:00 4ft 15s 7 9 mph 1025.2mb 60f 63f
10:00 3.5ft 14s 9
mph
1025.2mb 60f 62f
9:00 4ft 8s 11 13 mph 1025mb 60f 61f
8:00 3.5ft 8s 13 16 mph 1024.6mb 60f 62f
7:00 4ft 8s 7 9 mph 1024.4mb 60f 61f
6:00 4ft 8s 9 11 mph 1024.2mb 60f 61f
5:00 3.5ft 8s 7 9 mph 1024mb 60f 62f
4:00 4ft 8s 11 13 mph 1024.2mb 60f 62f
3:00 4ft 15s 9 13 mph 1024.3mb 60f 61f
2:00 4ft 8s 9 11 mph 1024.7mb 60f 62f
1:00 4ft 8s 9
mph
1025mb 60f 61f
12:00 3.5ft 14s 9 13 mph 1025.3mb 60f 62f
Fr 07/22 11:00 3.5ft 14s 4 7 mph 1025.5mb 60f 60f
10:00 3.5ft 8s 4 7 mph 1025.7mb 60f 61f
9:00 3.5ft 8s 9 11 mph 1025.3mb 60f 61f
8:00 3.5ft 8s 11 13 mph 1025.3mb 61f 62f
7:00 3.5ft 9s 7 9 mph 1025.3mb 61f 63f
6:00 3.5ft 8s 9 11 mph 1025.4mb 61f 62f
5:00 3.5ft 8s 7 9 mph 1025.3mb 61f 62f
4:00 3ft 8s 4 7 mph 1025.4mb 61f 63f
3:00 3.5ft 15s 11 13 mph 1025.2mb 61f 61f
2:00 3.5ft 8s 4
mph
1025.2mb 61f 60f
1:00 3.5ft 8s 4 7 mph 1025mb 61f 62f
12:00 3ft 15s 2 4 mph 1024.7mb 60f 60f
11:00 3.5ft 14s 7
mph
1024.1mb 60f 62f
10:00 3.5ft 8s 4 9 mph 1023.7mb 60f 62f
9:00 3.5ft 15s 9 11 mph 1023.2mb 60f 61f